Time;durP1;ratioP1;P1;durP2;ratioP2;P2;SDS_P1;SDS_P2;PMS_P1;PMS_P2;Temp;Humidity;BMP_temperature;BMP_pressure;BME280_temperature;BME280_humidity;BME280_pressure;Samples;Min_cycle;Max_cycle;Signal;HPM_P1;HPM_P2
2021/12/15 00:01:14;;;;;;;88.13;37.45;;;9.50;99.90;;;;;;5067048;28;20052;-82
2021/12/15 00:03:41;;;;;;;90.93;36.88;;;9.50;99.90;;;;;;5068434;28;20049;-82
2021/12/15 00:06:12;;;;;;;92.43;37.38;;;9.40;99.90;;;;;;5063061;28;20119;-82
2021/12/15 00:08:39;;;;;;;80.82;32.83;;;9.50;99.90;;;;;;5064304;28;20063;-82
2021/12/15 00:11:05;;;;;;;74.47;35.05;;;9.50;99.90;;;;;;5065322;28;20060;-81
2021/12/15 00:13:33;;;;;;;86.45;33.60;;;9.50;99.90;;;;;;5071679;28;20049;-81
2021/12/15 00:16:00;;;;;;;81.32;32.65;;;9.50;99.90;;;;;;5058551;28;20053;-81
2021/12/15 00:18:26;;;;;;;79.53;34.33;;;9.50;99.90;;;;;;5062494;28;20060;-82
2021/12/15 00:20:53;;;;;;;82.47;35.42;;;9.50;99.90;;;;;;5052333;28;20049;-82
2021/12/15 00:23:19;;;;;;;75.50;33.78;;;9.60;99.90;;;;;;5057140;28;20526;-84
2021/12/15 00:25:46;;;;;;;76.18;32.00;;;9.50;99.90;;;;;;5061673;28;20081;-81
2021/12/15 00:28:12;;;;;;;77.30;34.63;;;9.50;99.90;;;;;;5064889;28;20053;-82
2021/12/15 00:30:39;;;;;;;69.30;33.70;;;9.50;99.90;;;;;;5054968;28;20491;-83
2021/12/15 00:33:06;;;;;;;64.22;29.85;;;9.50;99.90;;;;;;5059662;28;20483;-83
2021/12/15 00:35:33;;;;;;;61.33;31.25;;;9.60;99.90;;;;;;5055393;28;20452;-83
2021/12/15 00:37:59;;;;;;;63.97;30.60;;;9.60;99.90;;;;;;5055092;28;20063;-83
2021/12/15 00:40:26;;;;;;;62.10;29.88;;;9.60;99.90;;;;;;5067466;28;20057;-83
2021/12/15 00:42:52;;;;;;;61.90;31.33;;;9.60;99.90;;;;;;5064588;28;20099;-83
2021/12/15 00:45:19;;;;;;;72.22;33.00;;;9.60;99.90;;;;;;5065904;28;20056;-83
2021/12/15 00:47:45;;;;;;;67.05;33.28;;;9.60;99.90;;;;;;5067752;28;20063;-83
2021/12/15 00:50:12;;;;;;;68.57;31.27;;;9.60;99.90;;;;;;5064821;28;20075;-81
2021/12/15 00:52:38;;;;;;;62.90;31.60;;;9.60;99.90;;;;;;5061984;28;20055;-82
2021/12/15 00:55:05;;;;;;;65.22;30.58;;;9.60;99.90;;;;;;5066752;28;20059;-82
2021/12/15 00:57:32;;;;;;;66.35;32.80;;;9.60;99.90;;;;;;5066209;28;20464;-83
2021/12/15 00:59:58;;;;;;;62.00;29.80;;;9.60;99.90;;;;;;5061742;28;20056;-83
2021/12/15 01:02:25;;;;;;;48.92;28.30;;;9.60;99.90;;;;;;5064981;28;20049;-83
2021/12/15 01:04:51;;;;;;;65.38;31.60;;;9.60;99.90;;;;;;5052426;28;20064;-83
2021/12/15 01:07:18;;;;;;;80.20;29.77;;;9.60;99.90;;;;;;5065433;28;20062;-83
2021/12/15 01:09:46;;;;;;;58.50;30.58;;;9.60;99.90;;;;;;5067555;28;20048;-83
2021/12/15 01:12:20;;;;;;;61.75;30.48;;;9.60;99.90;;;;;;5064293;28;20485;-83
2021/12/15 01:20:15;;;;;;;59.58;30.38;;;9.60;99.90;;;;;;5076982;28;20057;-82
2021/12/15 01:22:42;;;;;;;55.33;29.42;;;9.60;99.90;;;;;;5059952;28;20052;-82
2021/12/15 01:25:08;;;;;;;52.30;31.42;;;9.60;99.90;;;;;;5056566;28;20041;-83
2021/12/15 01:27:35;;;;;;;55.05;29.52;;;9.60;99.90;;;;;;5061427;28;20049;-83
2021/12/15 01:30:01;;;;;;;54.05;31.10;;;9.60;99.90;;;;;;5062216;28;20053;-84
2021/12/15 01:32:28;;;;;;;65.72;32.95;;;9.70;99.90;;;;;;5064829;28;20055;-85
2021/12/15 01:34:54;;;;;;;50.03;30.55;;;9.60;99.90;;;;;;5057063;28;20044;-81
2021/12/15 01:37:21;;;;;;;56.53;32.00;;;9.70;99.90;;;;;;5055670;28;20067;-82
2021/12/15 01:39:53;;;;;;;63.15;32.60;;;9.70;99.90;;;;;;5066856;28;20048;-82
2021/12/15 01:42:19;;;;;;;69.35;31.40;;;9.70;99.90;;;;;;5077521;28;20040;-82
2021/12/15 01:47:30;;;;;;;61.30;30.75;;;9.70;99.90;;;;;;5062208;28;20053;-82
2021/12/15 01:49:57;;;;;;;52.80;31.58;;;9.70;99.90;;;;;;5062029;28;20059;-82
2021/12/15 01:52:23;;;;;;;61.55;30.88;;;9.70;99.90;;;;;;5056858;28;20041;-83
2021/12/15 01:54:50;;;;;;;55.20;28.77;;;9.70;99.90;;;;;;5069023;28;20053;-82
2021/12/15 01:57:16;;;;;;;58.15;30.35;;;9.70;99.90;;;;;;5063160;28;20139;-82
2021/12/15 01:59:43;;;;;;;50.78;29.70;;;9.70;99.90;;;;;;5061626;28;20059;-81
2021/12/15 02:02:09;;;;;;;56.25;30.90;;;9.70;99.90;;;;;;5058764;28;20052;-82
2021/12/15 02:04:36;;;;;;;51.05;29.75;;;9.70;99.90;;;;;;5062325;28;20048;-81
2021/12/15 02:07:03;;;;;;;64.05;30.67;;;9.70;99.90;;;;;;5062650;28;20169;-81
2021/12/15 02:09:47;;;;;;;56.60;31.90;;;9.70;99.90;;;;;;5059145;28;20136;-82
2021/12/15 02:12:16;;;;;;;60.70;31.52;;;9.70;99.90;;;;;;5065188;28;20047;-82
2021/12/15 02:14:43;;;;;;;57.60;28.27;;;9.70;99.90;;;;;;5056457;28;20051;-82
2021/12/15 02:17:09;;;;;;;52.08;28.45;;;9.70;99.90;;;;;;5057409;28;20056;-81
2021/12/15 02:19:36;;;;;;;59.25;32.13;;;9.70;99.90;;;;;;5060867;28;20487;-82
2021/12/15 02:22:03;;;;;;;57.97;29.30;;;9.70;99.90;;;;;;5051999;28;20416;-82
2021/12/15 02:24:29;;;;;;;54.67;29.23;;;9.70;99.90;;;;;;5057368;28;20055;-81
2021/12/15 02:26:59;;;;;;;62.72;32.05;;;9.70;99.90;;;;;;5063106;28;20468;-80
2021/12/15 02:29:29;;;;;;;58.15;31.42;;;9.70;99.90;;;;;;5065301;28;20495;-82
2021/12/15 02:32:04;;;;;;;56.53;29.77;;;9.70;99.90;;;;;;5058564;28;20045;-81
2021/12/15 02:34:56;;;;;;;61.00;33.97;;;9.70;99.90;;;;;;5053763;28;20708;-82
2021/12/15 02:37:22;;;;;;;58.47;33.90;;;9.70;99.90;;;;;;5063142;28;20053;-82
2021/12/15 02:39:48;;;;;;;65.10;35.30;;;9.70;99.90;;;;;;5065548;28;20137;-82
2021/12/15 02:42:15;;;;;;;64.07;31.02;;;9.70;99.90;;;;;;5056721;28;20041;-81
2021/12/15 02:44:43;;;;;;;57.58;29.92;;;9.70;99.90;;;;;;5063322;28;20059;-82
2021/12/15 02:47:10;;;;;;;61.40;32.20;;;9.80;99.90;;;;;;5062969;28;20051;-82
2021/12/15 02:49:36;;;;;;;61.22;29.20;;;9.70;99.90;;;;;;5065203;28;20056;-82
2021/12/15 02:52:03;;;;;;;48.28;29.58;;;9.80;99.90;;;;;;5067786;28;20045;-81
2021/12/15 02:54:29;;;;;;;46.90;29.00;;;9.80;99.90;;;;;;5070601;28;20052;-82
2021/12/15 02:57:04;;;;;;;55.65;30.45;;;9.80;99.90;;;;;;5058192;28;20546;-81
2021/12/15 02:59:39;;;;;;;57.50;30.80;;;9.80;99.90;;;;;;5069559;28;20084;-82
2021/12/15 03:02:14;;;;;;;65.22;31.15;;;9.80;99.90;;;;;;5062769;28;20044;-81
2021/12/15 03:04:44;;;;;;;54.60;28.98;;;9.70;99.90;;;;;;5058420;28;20053;-82
2021/12/15 03:07:15;;;;;;;50.85;27.58;;;9.80;99.90;;;;;;5054678;28;20081;-81
2021/12/15 03:17:53;;;;;;;56.47;27.45;;;9.80;99.90;;;;;;5056384;28;20258;-81
2021/12/15 03:20:19;;;;;;;54.60;29.17;;;9.80;99.90;;;;;;5063923;28;20048;-81
2021/12/15 03:22:46;;;;;;;55.58;32.85;;;9.80;99.90;;;;;;5064480;28;20057;-81
2021/12/15 03:25:12;;;;;;;52.92;30.40;;;9.80;99.90;;;;;;5062285;28;20044;-81
2021/12/15 03:33:36;;;;;;;54.28;31.20;;;9.80;99.90;;;;;;4996696;28;20078;-82
2021/12/15 03:36:08;;;;;;;53.40;30.30;;;9.80;99.90;;;;;;5046009;28;20051;-81
2021/12/15 03:38:35;;;;;;;66.80;32.65;;;9.80;99.90;;;;;;5053945;28;20064;-82
2021/12/15 03:41:02;;;;;;;67.28;32.83;;;9.80;99.90;;;;;;5060860;28;20052;-80
2021/12/15 03:43:29;;;;;;;54.15;28.77;;;9.80;99.90;;;;;;5060857;28;20041;-81
2021/12/15 03:45:55;;;;;;;54.33;30.58;;;9.80;99.90;;;;;;5066858;28;20048;-81
2021/12/15 03:48:22;;;;;;;62.55;32.03;;;9.80;99.90;;;;;;5061938;28;20060;-81
2021/12/15 03:50:49;;;;;;;53.10;33.22;;;9.80;99.90;;;;;;5057236;28;20491;-81
2021/12/15 03:53:15;;;;;;;63.63;30.40;;;9.90;99.90;;;;;;5067084;28;20048;-81
2021/12/15 03:55:42;;;;;;;50.45;29.98;;;9.80;99.90;;;;;;5060566;28;20480;-82
2021/12/15 03:58:10;;;;;;;71.45;34.47;;;9.80;99.90;;;;;;5063808;28;20049;-81
2021/12/15 04:00:36;;;;;;;62.10;32.92;;;9.80;99.90;;;;;;5058472;28;20055;-81
2021/12/15 04:03:03;;;;;;;55.00;32.22;;;9.80;99.90;;;;;;5063371;28;20056;-80
2021/12/15 04:05:30;;;;;;;70.03;33.25;;;9.80;99.90;;;;;;5072646;28;20064;-81
2021/12/15 04:07:57;;;;;;;60.65;33.83;;;9.80;99.90;;;;;;5071833;28;20059;-81
2021/12/15 04:10:24;;;;;;;54.95;30.05;;;9.80;99.90;;;;;;5063066;28;20092;-82
2021/12/15 04:12:50;;;;;;;51.25;30.73;;;9.80;99.90;;;;;;5067903;28;20048;-81
2021/12/15 04:15:27;;;;;;;59.35;34.17;;;9.80;99.90;;;;;;5061681;28;20041;-81
2021/12/15 04:17:53;;;;;;;56.83;34.33;;;9.90;99.90;;;;;;5060812;28;20053;-81
2021/12/15 04:20:20;;;;;;;54.10;31.67;;;9.80;99.90;;;;;;5056838;28;20124;-81
2021/12/15 04:22:46;;;;;;;60.28;34.28;;;9.80;99.90;;;;;;5066037;28;20059;-81
2021/12/15 04:25:13;;;;;;;60.95;32.60;;;9.90;99.90;;;;;;5059911;28;20051;-81
2021/12/15 04:27:39;;;;;;;58.13;32.90;;;9.80;99.90;;;;;;5069061;28;20049;-82
2021/12/15 04:30:06;;;;;;;57.25;31.67;;;9.80;99.90;;;;;;5064475;28;20045;-80
2021/12/15 04:32:32;;;;;;;62.30;32.78;;;9.80;99.90;;;;;;5071267;28;20141;-82
2021/12/15 04:34:59;;;;;;;61.10;35.50;;;9.90;99.90;;;;;;5065781;28;20048;-81
2021/12/15 04:37:25;;;;;;;60.80;33.05;;;9.80;99.90;;;;;;5062495;28;20514;-82
2021/12/15 04:39:52;;;;;;;64.97;33.17;;;9.80;99.90;;;;;;5061327;28;20048;-81
2021/12/15 04:42:20;;;;;;;73.68;32.20;;;9.80;99.90;;;;;;5060773;28;20056;-81
2021/12/15 04:44:46;;;;;;;62.15;32.88;;;9.80;99.90;;;;;;5071185;28;20044;-82
2021/12/15 04:47:13;;;;;;;67.78;34.20;;;9.80;99.90;;;;;;5061151;28;20056;-82
2021/12/15 04:49:40;;;;;;;56.90;33.00;;;9.80;99.90;;;;;;5066959;28;20063;-82
2021/12/15 04:52:06;;;;;;;62.42;33.33;;;9.80;99.90;;;;;;5065920;28;20045;-80
2021/12/15 04:54:33;;;;;;;73.45;35.00;;;9.80;99.90;;;;;;5068486;28;20056;-81
2021/12/15 04:57:01;;;;;;;74.43;36.20;;;9.80;99.90;;;;;;5053003;28;20056;-81
2021/12/15 04:59:27;;;;;;;63.45;33.83;;;9.80;99.90;;;;;;5064551;28;20102;-81
2021/12/15 05:01:54;;;;;;;64.28;34.08;;;9.80;99.90;;;;;;5057702;28;20057;-81
2021/12/15 05:04:21;;;;;;;69.63;36.45;;;9.80;99.90;;;;;;5063162;28;20048;-81
2021/12/15 05:06:47;;;;;;;62.90;34.75;;;9.80;99.90;;;;;;5058159;28;20056;-81
2021/12/15 05:09:14;;;;;;;59.92;33.25;;;9.80;99.90;;;;;;5051309;28;20048;-81
2021/12/15 05:11:40;;;;;;;65.07;33.50;;;9.70;99.90;;;;;;5051873;28;20130;-81
2021/12/15 05:14:07;;;;;;;71.15;34.95;;;9.80;99.90;;;;;;5055062;28;20044;-81
2021/12/15 05:16:34;;;;;;;63.85;33.85;;;9.80;99.90;;;;;;5058811;28;20048;-82
2021/12/15 05:19:00;;;;;;;59.58;31.50;;;9.80;99.90;;;;;;5060920;28;20102;-81
2021/12/15 05:21:28;;;;;;;70.10;35.63;;;9.80;99.90;;;;;;5061948;28;20802;-82
2021/12/15 05:23:59;;;;;;;74.90;35.85;;;9.80;99.90;;;;;;5059418;28;20123;-82
2021/12/15 05:26:26;;;;;;;67.65;33.75;;;9.80;99.90;;;;;;5060610;28;20045;-82
2021/12/15 05:28:52;;;;;;;64.63;33.85;;;9.80;99.90;;;;;;5061648;28;20049;-81
2021/12/15 05:31:19;;;;;;;64.43;33.60;;;9.80;99.90;;;;;;5063199;28;20049;-81
2021/12/15 05:33:45;;;;;;;64.82;34.28;;;9.80;99.90;;;;;;5060806;28;20057;-82
2021/12/15 05:36:12;;;;;;;61.75;35.70;;;9.80;99.90;;;;;;5057067;28;20056;-81
2021/12/15 05:38:38;;;;;;;68.18;31.92;;;9.80;99.90;;;;;;5055353;28;20053;-81
2021/12/15 05:41:05;;;;;;;63.22;35.00;;;9.90;99.90;;;;;;5069127;28;20047;-81
2021/12/15 05:43:32;;;;;;;71.13;35.13;;;9.80;99.90;;;;;;5064002;28;20050;-81
2021/12/15 05:45:58;;;;;;;63.20;35.20;;;9.80;99.90;;;;;;5061530;28;20062;-82
2021/12/15 05:48:25;;;;;;;64.45;32.83;;;9.80;99.90;;;;;;5063551;28;20148;-81
2021/12/15 05:50:51;;;;;;;75.18;39.20;;;9.80;99.90;;;;;;5056203;28;20132;-81
2021/12/15 05:53:18;;;;;;;62.08;34.95;;;9.80;99.90;;;;;;5052268;28;20053;-81
2021/12/15 05:55:44;;;;;;;60.83;31.70;;;9.80;99.90;;;;;;5069421;28;20045;-81
2021/12/15 05:58:11;;;;;;;58.08;33.53;;;9.80;99.90;;;;;;5062303;28;20404;-80
2021/12/15 06:00:37;;;;;;;70.22;38.75;;;9.80;99.90;;;;;;5063872;28;20086;-81
2021/12/15 06:03:04;;;;;;;54.70;33.92;;;9.80;99.90;;;;;;5054613;28;20052;-81
2021/12/15 06:05:30;;;;;;;65.28;35.80;;;9.80;99.90;;;;;;5059531;28;20044;-83
2021/12/15 06:07:57;;;;;;;70.03;35.17;;;9.80;99.90;;;;;;5063492;28;20051;-83
2021/12/15 06:10:24;;;;;;;72.43;39.55;;;9.80;99.90;;;;;;5058335;28;20049;-81
2021/12/15 06:12:50;;;;;;;64.65;35.75;;;9.80;99.90;;;;;;5059200;28;20056;-82
2021/12/15 06:15:22;;;;;;;63.97;34.03;;;9.80;99.90;;;;;;5052483;28;20041;-82
2021/12/15 06:17:49;;;;;;;67.78;35.15;;;9.80;99.90;;;;;;5054855;28;20049;-82
2021/12/15 06:20:15;;;;;;;70.20;38.97;;;9.80;99.90;;;;;;5052347;28;20045;-82
2021/12/15 06:22:44;;;;;;;74.45;39.42;;;9.70;99.90;;;;;;5053208;28;20060;-82
2021/12/15 06:25:11;;;;;;;69.28;35.10;;;9.80;99.90;;;;;;5053389;28;20071;-82
2021/12/15 06:27:37;;;;;;;65.07;37.33;;;9.80;99.90;;;;;;5055073;28;20049;-82
2021/12/15 06:30:04;;;;;;;71.05;39.00;;;9.70;99.90;;;;;;5052449;28;20064;-82
2021/12/15 06:32:30;;;;;;;75.47;38.78;;;9.80;99.90;;;;;;5053762;28;20136;-82
2021/12/15 06:34:57;;;;;;;72.78;36.55;;;9.80;99.90;;;;;;5054999;28;20051;-82
2021/12/15 06:37:23;;;;;;;64.47;35.22;;;9.70;99.90;;;;;;5057108;28;20061;-82
2021/12/15 06:39:50;;;;;;;72.80;37.35;;;9.80;99.90;;;;;;5052085;28;20045;-82
2021/12/15 06:42:16;;;;;;;73.32;38.05;;;9.80;99.90;;;;;;5050461;28;20045;-81
2021/12/15 06:44:43;;;;;;;66.82;35.92;;;9.80;99.90;;;;;;5053261;28;20045;-82
2021/12/15 06:47:49;;;;;;;77.88;38.75;;;9.80;99.90;;;;;;5051902;28;20472;-82
2021/12/15 06:58:24;;;;;;;68.60;37.83;;;9.80;99.90;;;;;;5050805;28;20049;-82
2021/12/15 07:00:50;;;;;;;66.93;38.08;;;9.80;99.90;;;;;;5051078;28;20044;-82
2021/12/15 07:03:17;;;;;;;64.03;35.63;;;9.70;99.90;;;;;;5051088;28;20053;-81
2021/12/15 07:05:43;;;;;;;73.15;37.50;;;9.80;99.90;;;;;;5049903;28;20059;-82
2021/12/15 07:08:10;;;;;;;69.68;36.55;;;9.70;99.90;;;;;;5050476;28;20049;-82
2021/12/15 07:10:37;;;;;;;75.80;38.50;;;9.70;99.90;;;;;;5048964;28;20045;-82
2021/12/15 07:13:04;;;;;;;68.95;35.65;;;9.70;99.90;;;;;;5051869;28;20049;-82
2021/12/15 07:15:31;;;;;;;68.45;38.28;;;9.70;99.90;;;;;;5052698;28;20045;-82
2021/12/15 07:18:03;;;;;;;74.95;35.30;;;9.80;99.90;;;;;;5065670;28;20041;-82
2021/12/15 07:20:38;;;;;;;65.70;36.63;;;9.70;99.90;;;;;;5065089;28;20534;-82
2021/12/15 07:23:04;;;;;;;65.05;36.92;;;9.70;99.90;;;;;;5050020;28;20110;-82
2021/12/15 07:25:31;;;;;;;63.75;34.05;;;9.80;99.90;;;;;;5065340;28;20400;-82
2021/12/15 07:27:58;;;;;;;68.32;38.08;;;9.70;99.90;;;;;;5052846;28;20484;-82
2021/12/15 07:30:24;;;;;;;67.25;35.78;;;9.80;99.90;;;;;;5065608;28;20127;-82
2021/12/15 07:32:51;;;;;;;77.20;39.65;;;9.80;99.90;;;;;;5054928;28;20044;-82
2021/12/15 07:35:17;;;;;;;59.10;33.58;;;9.70;99.90;;;;;;5054096;28;20041;-80
2021/12/15 07:37:44;;;;;;;68.82;36.30;;;9.70;99.90;;;;;;5053585;28;20059;-81
2021/12/15 07:40:12;;;;;;;60.42;35.05;;;9.70;99.90;;;;;;5056866;28;20055;-81
2021/12/15 07:42:53;;;;;;;70.50;36.22;;;9.70;99.90;;;;;;5055524;28;20053;-83
2021/12/15 07:45:22;;;;;;;66.03;36.47;;;9.70;99.90;;;;;;5056071;28;20052;-81
2021/12/15 07:47:48;;;;;;;64.80;34.70;;;9.70;99.90;;;;;;5054302;28;20053;-81
2021/12/15 07:50:15;;;;;;;66.03;35.42;;;9.80;99.90;;;;;;5053721;28;20041;-82
2021/12/15 07:52:41;;;;;;;64.40;34.97;;;9.70;99.90;;;;;;5056769;28;20041;-82
2021/12/15 07:55:08;;;;;;;71.72;36.33;;;9.80;99.90;;;;;;5057013;28;20047;-81
2021/12/15 07:57:35;;;;;;;62.72;35.38;;;9.80;99.90;;;;;;5055176;28;20052;-82
2021/12/15 08:00:01;;;;;;;59.88;35.75;;;9.70;99.90;;;;;;5055268;28;20476;-82
2021/12/15 08:02:28;;;;;;;62.42;34.33;;;9.70;99.90;;;;;;5052562;28;20400;-81
2021/12/15 08:04:54;;;;;;;59.63;37.85;;;9.70;99.90;;;;;;5055329;28;20041;-82
2021/12/15 08:07:21;;;;;;;65.10;35.10;;;9.70;99.90;;;;;;5054101;28;20056;-80
2021/12/15 08:09:49;;;;;;;71.65;37.08;;;9.70;99.90;;;;;;5054419;28;20515;-82
2021/12/15 08:12:16;;;;;;;71.88;37.65;;;9.70;99.90;;;;;;5055455;28;20048;-81
2021/12/15 08:14:42;;;;;;;65.45;35.83;;;9.70;99.90;;;;;;5058227;28;20049;-81
2021/12/15 08:17:09;;;;;;;68.50;36.55;;;9.70;99.90;;;;;;5057080;28;20053;-81
2021/12/15 08:19:35;;;;;;;59.60;32.10;;;9.70;99.90;;;;;;5052068;28;20061;-81
2021/12/15 08:22:02;;;;;;;60.55;31.58;;;9.70;99.90;;;;;;5055259;28;20053;-82
2021/12/15 08:24:28;;;;;;;66.75;33.05;;;9.70;99.90;;;;;;5054163;28;20048;-82
2021/12/15 08:26:55;;;;;;;59.55;34.53;;;9.80;99.90;;;;;;5060563;28;20037;-82
2021/12/15 08:29:21;;;;;;;58.42;33.15;;;9.70;99.90;;;;;;5062054;28;20118;-81
2021/12/15 08:31:48;;;;;;;65.18;31.80;;;9.80;99.90;;;;;;5063427;28;20048;-82
2021/12/15 08:34:14;;;;;;;58.72;33.35;;;9.80;99.90;;;;;;5057635;28;20037;-82
2021/12/15 08:36:41;;;;;;;60.10;33.10;;;9.80;99.90;;;;;;5054176;28;20075;-81
2021/12/15 08:39:09;;;;;;;59.63;30.75;;;9.80;99.90;;;;;;5053772;28;20142;-81
2021/12/15 08:41:36;;;;;;;50.92;29.08;;;9.80;99.90;;;;;;5056832;28;20049;-82
2021/12/15 08:44:06;;;;;;;55.05;31.05;;;9.80;99.90;;;;;;5052329;28;20499;-82
2021/12/15 08:46:33;;;;;;;54.30;31.38;;;9.80;99.90;;;;;;5053072;28;20050;-82
2021/12/15 08:48:59;;;;;;;54.83;29.75;;;9.80;99.90;;;;;;5054100;28;20044;-82
2021/12/15 08:51:26;;;;;;;49.83;30.23;;;9.80;99.90;;;;;;5054853;28;20056;-81
2021/12/15 08:53:52;;;;;;;53.90;29.55;;;9.80;99.90;;;;;;5054111;28;20051;-81
2021/12/15 08:56:19;;;;;;;50.92;28.10;;;9.80;99.90;;;;;;5053103;28;20100;-80
2021/12/15 08:58:45;;;;;;;45.50;27.42;;;9.90;99.90;;;;;;5056487;28;20247;-81
2021/12/15 09:01:12;;;;;;;47.45;27.65;;;9.90;99.90;;;;;;5061950;28;20040;-82
2021/12/15 09:03:41;;;;;;;43.22;28.00;;;9.90;99.90;;;;;;5063825;28;20049;-82
2021/12/15 09:06:08;;;;;;;49.33;27.40;;;9.90;99.90;;;;;;5059068;28;20045;-82
2021/12/15 09:08:35;;;;;;;63.90;29.58;;;9.90;99.90;;;;;;5054446;28;20055;-83
2021/12/15 09:11:01;;;;;;;46.92;25.63;;;9.90;99.90;;;;;;5059246;28;20049;-80
2021/12/15 09:13:30;;;;;;;46.67;26.88;;;9.90;99.90;;;;;;5065809;28;20079;-81
2021/12/15 09:15:57;;;;;;;57.75;28.08;;;9.90;99.90;;;;;;5054908;28;20570;-80
2021/12/15 09:18:23;;;;;;;43.03;27.42;;;9.90;99.90;;;;;;5060122;28;20049;-80
2021/12/15 09:20:50;;;;;;;48.75;27.25;;;10.00;99.90;;;;;;5060687;28;20480;-81
2021/12/15 09:23:16;;;;;;;49.55;24.98;;;10.00;99.90;;;;;;5060024;28;20411;-80
2021/12/15 09:25:43;;;;;;;44.67;25.92;;;10.00;99.90;;;;;;5054396;28;20045;-80
2021/12/15 09:28:10;;;;;;;43.85;25.50;;;10.00;99.90;;;;;;5064894;28;20041;-81
2021/12/15 09:30:41;;;;;;;40.30;24.38;;;10.00;99.90;;;;;;5059303;28;20051;-81
2021/12/15 09:33:08;;;;;;;36.63;22.90;;;10.00;99.90;;;;;;5065676;28;20055;-80
2021/12/15 09:35:34;;;;;;;57.00;28.25;;;10.00;99.90;;;;;;5069399;28;20044;-82
2021/12/15 09:38:01;;;;;;;38.33;22.50;;;10.00;99.90;;;;;;5061014;28;20059;-82
2021/12/15 09:40:27;;;;;;;53.03;25.58;;;10.00;99.90;;;;;;5058685;28;20096;-81
2021/12/15 09:42:55;;;;;;;38.80;21.55;;;10.10;99.90;;;;;;5057489;28;20041;-82
2021/12/15 09:45:30;;;;;;;42.88;24.25;;;10.10;99.90;;;;;;5064154;28;20056;-82
2021/12/15 09:56:20;;;;;;;42.40;24.88;;;10.20;99.90;;;;;;5057033;28;20052;-82
2021/12/15 09:56:37;;;;;;;45.45;24.58;;;10.20;99.90;;;;;;5064133;28;20041;-82
2021/12/15 10:02:05;;;;;;;39.88;23.60;;;10.40;99.90;;;;;;5060102;28;20128;-81
2021/12/15 10:18:38;;;;;;;41.00;20.98;;;10.60;99.90;;;;;;5065819;28;20048;-82
2021/12/15 10:21:05;;;;;;;36.40;21.90;;;10.40;99.90;;;;;;5064518;28;20070;-83
2021/12/15 10:23:36;;;;;;;42.25;22.65;;;10.30;99.90;;;;;;5053896;28;20136;-81
2021/12/15 10:26:03;;;;;;;37.05;22.67;;;10.30;99.90;;;;;;5057819;28;20110;-82
2021/12/15 10:28:30;;;;;;;40.05;21.27;;;10.40;99.90;;;;;;5059671;28;20048;-82
2021/12/15 10:30:56;;;;;;;33.65;20.00;;;10.30;99.90;;;;;;5057829;28;20062;-82
2021/12/15 10:33:23;;;;;;;33.00;20.38;;;10.30;99.90;;;;;;5052904;28;20129;-82
2021/12/15 10:35:49;;;;;;;42.25;23.35;;;10.30;99.90;;;;;;5050915;28;20049;-83
2021/12/15 10:38:18;;;;;;;41.20;19.90;;;10.30;99.90;;;;;;5057402;28;20488;-81
2021/12/15 10:40:44;;;;;;;33.80;20.33;;;10.30;99.90;;;;;;5050623;28;20140;-81
2021/12/15 10:43:11;;;;;;;36.95;21.63;;;10.30;99.90;;;;;;5063365;28;20049;-81
2021/12/15 10:45:37;;;;;;;28.48;19.90;;;10.30;99.90;;;;;;5064868;28;20485;-82
2021/12/15 10:48:09;;;;;;;36.33;20.98;;;10.30;99.90;;;;;;5064487;28;20495;-81
2021/12/15 10:50:35;;;;;;;32.53;20.98;;;10.30;99.90;;;;;;5062984;28;20045;-81
2021/12/15 10:53:02;;;;;;;33.20;18.67;;;10.30;99.90;;;;;;5056786;28;20044;-81
2021/12/15 10:55:28;;;;;;;30.58;19.73;;;10.40;99.90;;;;;;5053492;28;20052;-82
2021/12/15 10:57:55;;;;;;;26.40;18.50;;;10.40;99.90;;;;;;5062867;28;20048;-82
2021/12/15 11:00:22;;;;;;;33.28;17.50;;;10.40;99.90;;;;;;5064231;28;20135;-81
2021/12/15 11:02:49;;;;;;;31.40;16.17;;;10.40;99.90;;;;;;5065315;28;20060;-81
2021/12/15 11:05:15;;;;;;;27.42;16.23;;;10.40;99.90;;;;;;5067798;28;20049;-81
2021/12/15 11:07:42;;;;;;;35.08;19.02;;;10.40;99.90;;;;;;5063107;28;20049;-81
2021/12/15 11:10:10;;;;;;;29.75;15.63;;;10.40;99.90;;;;;;5059065;28;20554;-81
2021/12/15 11:12:36;;;;;;;28.65;17.33;;;10.40;99.90;;;;;;5062570;28;20052;-80
2021/12/15 11:15:03;;;;;;;29.10;17.40;;;10.40;99.90;;;;;;5064120;28;20052;-81
2021/12/15 11:17:29;;;;;;;27.55;15.88;;;10.40;99.90;;;;;;5063360;28;20082;-81
2021/12/15 11:19:56;;;;;;;24.55;17.25;;;10.40;99.90;;;;;;5064947;28;20491;-81
2021/12/15 11:22:22;;;;;;;27.27;17.40;;;10.40;99.90;;;;;;5063269;28;20403;-81
2021/12/15 11:24:49;;;;;;;25.50;15.40;;;10.40;99.90;;;;;;5076096;28;20053;-81
2021/12/15 11:27:15;;;;;;;28.52;17.20;;;10.50;99.90;;;;;;5064165;28;20491;-81
2021/12/15 11:29:42;;;;;;;27.70;15.55;;;10.50;99.90;;;;;;5059222;28;20365;-81
2021/12/15 11:32:09;;;;;;;27.35;17.17;;;10.50;99.90;;;;;;5055934;28;20146;-81
2021/12/15 11:34:35;;;;;;;27.08;15.52;;;10.50;99.90;;;;;;5059161;28;20048;-80
2021/12/15 11:37:02;;;;;;;29.67;17.00;;;10.50;99.90;;;;;;5055900;28;20041;-82
2021/12/15 11:39:29;;;;;;;27.17;16.38;;;10.50;99.90;;;;;;5059144;28;20052;-81
2021/12/15 11:41:56;;;;;;;27.27;17.27;;;10.50;99.90;;;;;;5056715;28;20193;-82
2021/12/15 11:44:22;;;;;;;26.23;15.82;;;10.50;99.90;;;;;;5055385;28;20508;-81
2021/12/15 11:46:49;;;;;;;26.80;17.27;;;10.50;99.90;;;;;;5060718;28;20480;-81
2021/12/15 11:49:15;;;;;;;29.85;17.58;;;10.50;99.90;;;;;;5058645;28;20053;-81
2021/12/15 11:51:42;;;;;;;26.38;17.02;;;10.50;99.90;;;;;;5056865;28;20060;-81
2021/12/15 11:54:08;;;;;;;25.95;16.92;;;10.50;99.90;;;;;;5058174;28;20045;-81
2021/12/15 11:56:35;;;;;;;24.27;16.38;;;10.50;99.90;;;;;;5057056;28;20041;-81
2021/12/15 11:59:02;;;;;;;25.75;16.23;;;10.60;99.90;;;;;;5057893;28;20134;-80
2021/12/15 12:01:28;;;;;;;26.08;14.98;;;10.60;99.90;;;;;;5055918;28;20047;-81
2021/12/15 12:03:55;;;;;;;28.15;16.80;;;10.60;99.90;;;;;;5059531;28;20072;-80
2021/12/15 12:06:21;;;;;;;19.65;13.35;;;10.60;99.90;;;;;;5059510;28;20045;-81
2021/12/15 12:08:48;;;;;;;20.65;13.13;;;10.60;99.90;;;;;;5058648;28;20127;-80
2021/12/15 12:11:15;;;;;;;24.17;14.23;;;10.70;99.90;;;;;;5058620;28;20040;-80
2021/12/15 12:13:49;;;;;;;19.60;11.55;;;10.60;99.90;;;;;;5056363;28;20044;-80
2021/12/15 12:16:16;;;;;;;17.95;11.25;;;10.70;99.90;;;;;;5058510;28;20091;-81
2021/12/15 12:18:42;;;;;;;20.10;11.10;;;10.70;99.90;;;;;;5061736;28;20139;-80
2021/12/15 12:21:09;;;;;;;20.23;11.73;;;10.70;99.90;;;;;;5060035;28;20377;-81
2021/12/15 12:23:35;;;;;;;19.67;10.32;;;10.70;99.90;;;;;;5061800;28;20059;-81
2021/12/15 12:26:02;;;;;;;23.35;9.73;;;10.70;99.90;;;;;;5056558;28;20071;-80
2021/12/15 12:28:29;;;;;;;13.27;9.43;;;10.70;99.90;;;;;;5069712;28;20049;-81
2021/12/15 12:30:55;;;;;;;16.13;7.85;;;10.80;99.90;;;;;;5066712;28;20475;-82
2021/12/15 12:33:22;;;;;;;19.92;7.75;;;10.80;99.90;;;;;;5062992;28;20507;-81
2021/12/15 12:35:48;;;;;;;14.70;7.00;;;10.80;99.90;;;;;;5064113;28;20040;-81
2021/12/15 12:38:15;;;;;;;13.30;7.35;;;10.80;99.90;;;;;;5059615;28;20052;-80
2021/12/15 12:40:42;;;;;;;9.50;5.85;;;10.80;99.90;;;;;;5056426;28;20135;-80
2021/12/15 12:43:08;;;;;;;12.57;7.22;;;10.80;99.90;;;;;;5065118;28;20045;-81
2021/12/15 12:45:37;;;;;;;9.52;6.28;;;10.80;99.90;;;;;;5066191;28;20052;-81
2021/12/15 12:48:14;;;;;;;11.40;7.03;;;10.80;99.90;;;;;;5065291;28;20084;-81
2021/12/15 12:51:05;;;;;;;11.05;6.22;;;10.70;99.90;;;;;;5069896;28;20052;-81
2021/12/15 13:01:55;;;;;;;8.85;6.85;;;10.60;99.90;;;;;;4989832;28;20050;-81
2021/12/15 13:04:22;;;;;;;13.90;6.70;;;10.60;99.90;;;;;;5043058;28;20055;-81
2021/12/15 13:06:49;;;;;;;17.42;6.45;;;10.60;99.90;;;;;;5056634;28;20053;-81
2021/12/15 13:09:16;;;;;;;12.23;6.55;;;10.70;99.90;;;;;;5062690;28;20446;-81
2021/12/15 13:11:46;;;;;;;8.50;5.95;;;10.50;99.90;;;;;;5061483;28;20372;-81
2021/12/15 13:14:13;;;;;;;14.80;7.35;;;10.40;99.90;;;;;;5059865;28;20048;-82
2021/12/15 13:16:39;;;;;;;20.00;7.15;;;10.40;99.90;;;;;;5065282;28;20075;-81
2021/12/15 13:19:06;;;;;;;16.70;7.30;;;10.40;99.90;;;;;;5062276;28;20067;-81
2021/12/15 13:21:32;;;;;;;17.90;7.55;;;10.50;99.90;;;;;;5067549;28;20056;-81
2021/12/15 13:24:00;;;;;;;7.88;5.75;;;10.50;99.90;;;;;;5064800;28;20055;-81
2021/12/15 13:29:11;;;;;;;7.07;5.93;;;10.50;99.90;;;;;;5060820;28;20055;-81
2021/12/15 13:31:38;;;;;;;13.40;5.13;;;10.50;99.90;;;;;;5063042;28;20490;-81
2021/12/15 13:34:05;;;;;;;12.10;5.35;;;10.50;99.90;;;;;;5058563;28;20091;-81
2021/12/15 13:36:31;;;;;;;12.35;4.88;;;10.50;99.90;;;;;;5063589;28;20120;-82
2021/12/15 13:38:58;;;;;;;11.45;5.63;;;10.50;99.90;;;;;;5064887;28;20053;-81
2021/12/15 13:41:30;;;;;;;6.20;4.28;;;10.50;99.90;;;;;;5064671;28;20041;-81